createdAt,value
2023-02-11T00:00:56.738Z,26.70
2023-02-11T00:03:23.927Z,26.60
2023-02-11T00:05:58.618Z,26.60
2023-02-11T00:08:25.891Z,26.50
2023-02-11T00:10:54.055Z,26.50
2023-02-11T00:13:20.974Z,26.50
2023-02-11T00:15:48.004Z,26.50
2023-02-11T00:18:15.431Z,26.50
2023-02-11T00:20:42.309Z,26.50
2023-02-11T00:23:09.539Z,26.50
2023-02-11T00:25:41.511Z,26.50
2023-02-11T00:28:09.529Z,26.50
2023-02-11T00:30:36.911Z,26.50
2023-02-11T00:33:04.318Z,26.50
2023-02-11T00:35:31.169Z,26.50
2023-02-11T00:37:57.977Z,26.50
2023-02-11T00:40:24.983Z,26.50
2023-02-11T00:42:51.734Z,26.50
2023-02-11T00:45:20.866Z,26.50
2023-02-11T00:47:47.908Z,26.50
2023-02-11T00:50:15.035Z,26.40
2023-02-11T00:52:41.804Z,26.40
2023-02-11T00:55:09.056Z,26.40
2023-02-11T00:57:35.881Z,26.40
2023-02-11T01:00:04.374Z,26.40
2023-02-11T01:02:33.298Z,26.40
2023-02-11T01:05:00.897Z,26.40
2023-02-11T01:07:28.635Z,26.50
2023-02-11T01:09:55.587Z,26.40
2023-02-11T01:12:23.140Z,26.50
2023-02-11T01:14:49.926Z,26.50
2023-02-11T01:17:16.710Z,26.50
2023-02-11T01:19:43.479Z,26.50
2023-02-11T01:22:10.402Z,26.50
2023-02-11T01:24:37.204Z,26.50
2023-02-11T01:27:04.096Z,26.60
2023-02-11T01:29:30.943Z,26.50
2023-02-11T01:31:58.012Z,26.50
2023-02-11T01:34:24.784Z,26.50
2023-02-11T01:36:51.548Z,26.50
2023-02-11T01:39:18.356Z,26.60
2023-02-11T01:41:45.132Z,26.60
2023-02-11T01:44:28.294Z,26.60
2023-02-11T01:46:55.627Z,26.60
2023-02-11T01:49:31.640Z,26.60
2023-02-11T01:52:10.343Z,26.60
2023-02-11T01:55:00.479Z,26.60
2023-02-11T01:57:30.387Z,26.60
2023-02-11T01:59:57.157Z,26.70
2023-02-11T02:02:30.681Z,26.60
2023-02-11T02:05:23.337Z,26.60
2023-02-11T02:08:03.629Z,26.60
2023-02-11T02:10:32.087Z,26.50
2023-02-11T02:12:58.828Z,26.50
2023-02-11T02:15:25.706Z,26.50
2023-02-11T02:18:00.771Z,26.50
2023-02-11T02:20:36.164Z,26.50
2023-02-11T02:23:22.112Z,26.40
2023-02-11T02:26:26.391Z,26.40
2023-02-11T02:29:05.483Z,26.40
2023-02-11T02:31:51.803Z,26.40
2023-02-11T02:34:50.144Z,26.40
2023-02-11T02:37:31.610Z,26.40
2023-02-11T02:40:02.119Z,26.30
2023-02-11T02:42:29.322Z,26.30
2023-02-11T02:44:56.513Z,26.30
2023-02-11T02:47:23.301Z,26.30
2023-02-11T02:49:50.113Z,26.30
2023-02-11T02:52:50.366Z,26.40
2023-02-11T02:55:28.423Z,26.40
2023-02-11T02:58:22.095Z,26.40
2023-02-11T03:01:13.312Z,26.40
2023-02-11T03:04:01.051Z,26.50
2023-02-11T03:06:46.604Z,26.50
2023-02-11T03:09:34.220Z,26.50
2023-02-11T03:12:03.020Z,26.50
2023-02-11T03:14:32.123Z,26.50
2023-02-11T03:17:01.844Z,26.50
2023-02-11T03:19:39.944Z,26.50
2023-02-11T03:22:21.886Z,26.50
2023-02-11T03:24:49.229Z,26.50
2023-02-11T03:27:20.734Z,26.50
2023-02-11T03:29:59.685Z,26.60
2023-02-11T03:32:32.781Z,26.60
2023-02-11T03:35:07.495Z,26.60
2023-02-11T03:37:41.891Z,26.70
2023-02-11T03:40:17.003Z,26.70
2023-02-11T03:42:58.164Z,26.70
2023-02-11T03:45:26.966Z,26.80
2023-02-11T03:48:29.439Z,26.80
2023-02-11T03:50:58.285Z,26.70
2023-02-11T03:53:25.173Z,26.80
2023-02-11T03:55:54.735Z,26.70
2023-02-11T03:58:21.561Z,26.70
2023-02-11T04:00:48.719Z,26.70
2023-02-11T04:03:15.631Z,26.60
2023-02-11T04:05:42.457Z,26.70
2023-02-11T04:08:09.293Z,26.60
2023-02-11T04:10:36.083Z,26.70
2023-02-11T04:13:03.043Z,26.60
2023-02-11T04:15:29.801Z,26.60
2023-02-11T04:17:56.560Z,26.60
2023-02-11T04:20:23.345Z,26.70
2023-02-11T04:22:50.095Z,26.60
2023-02-11T04:25:17.004Z,26.70
2023-02-11T04:27:43.739Z,26.70
2023-02-11T04:30:11.072Z,26.80
2023-02-11T04:32:37.984Z,26.70
2023-02-11T04:35:06.010Z,26.80
2023-02-11T04:37:32.896Z,26.80
2023-02-11T04:39:59.683Z,26.80
2023-02-11T04:42:26.462Z,27.30
2023-02-11T04:44:53.257Z,26.80
2023-02-11T04:47:20.113Z,26.90
2023-02-11T04:49:46.838Z,26.90
2023-02-11T04:52:13.576Z,26.90
2023-02-11T04:54:40.592Z,26.90
2023-02-11T04:57:07.411Z,27.00
2023-02-11T04:59:34.143Z,27.00
2023-02-11T05:02:00.938Z,27.10
2023-02-11T05:04:27.744Z,27.10
2023-02-11T05:06:55.654Z,27.10
2023-02-11T05:09:23.861Z,27.10
2023-02-11T05:11:50.630Z,27.10
2023-02-11T05:14:17.452Z,27.10
2023-02-11T05:16:44.271Z,27.10
2023-02-11T05:19:11.378Z,27.10
2023-02-11T05:21:38.139Z,27.10
2023-02-11T05:24:05.282Z,27.10
2023-02-11T05:26:32.712Z,27.10
2023-02-11T05:28:59.598Z,27.10
2023-02-11T05:31:26.445Z,27.10
2023-02-11T05:33:53.198Z,27.10
2023-02-11T05:36:19.949Z,27.10
2023-02-11T05:38:46.722Z,27.20
2023-02-11T05:41:13.756Z,27.30
2023-02-11T05:43:40.489Z,27.30
2023-02-11T05:46:07.251Z,27.40
2023-02-11T05:48:34.514Z,27.40
2023-02-11T05:51:01.321Z,27.50
2023-02-11T05:53:28.145Z,27.60
2023-02-11T05:55:54.963Z,27.60
2023-02-11T05:58:21.737Z,27.60
2023-02-11T06:00:48.521Z,27.70
2023-02-11T06:03:15.329Z,28.30
2023-02-11T06:05:43.955Z,27.70
2023-02-11T06:08:10.991Z,27.70
2023-02-11T06:10:37.846Z,27.70
2023-02-11T06:13:04.677Z,27.70
2023-02-11T06:15:31.415Z,27.60
2023-02-11T06:17:58.228Z,27.70
2023-02-11T06:20:25.014Z,27.60
2023-02-11T06:22:51.744Z,27.60
2023-02-11T06:25:18.613Z,27.60
2023-02-11T06:27:45.397Z,27.60
2023-02-11T06:30:12.824Z,27.60
2023-02-11T06:32:44.314Z,27.60
2023-02-11T06:35:13.166Z,27.60
2023-02-11T06:37:41.204Z,27.60
2023-02-11T06:40:08.772Z,27.70
2023-02-11T06:42:36.178Z,27.70
2023-02-11T06:45:06.021Z,27.80
2023-02-11T06:47:32.847Z,27.80
2023-02-11T06:49:59.646Z,27.80
2023-02-11T06:52:27.015Z,27.80
2023-02-11T06:54:53.881Z,27.80
2023-02-11T06:57:20.665Z,27.90
2023-02-11T06:59:47.491Z,27.80
2023-02-11T07:02:14.398Z,27.80
2023-02-11T07:04:41.519Z,27.80
2023-02-11T07:07:08.403Z,27.70
2023-02-11T07:09:35.212Z,27.70
2023-02-11T07:12:01.965Z,27.80
2023-02-11T07:14:29.099Z,27.80
2023-02-11T07:16:55.855Z,27.90
2023-02-11T07:19:22.694Z,27.90
2023-02-11T07:21:49.445Z,27.90
2023-02-11T07:24:16.306Z,27.90
2023-02-11T07:26:43.198Z,27.90
2023-02-11T07:29:09.975Z,28.00
2023-02-11T07:31:36.824Z,28.00
2023-02-11T07:34:03.910Z,28.00
2023-02-11T07:36:32.017Z,28.00
2023-02-11T07:39:00.201Z,28.10
2023-02-11T07:41:28.075Z,28.00
2023-02-11T07:43:55.376Z,28.10
2023-02-11T07:46:27.609Z,28.00
2023-02-11T07:48:55.416Z,28.00
2023-02-11T07:51:30.909Z,28.10
2023-02-11T07:53:59.589Z,28.10
2023-02-11T07:56:27.267Z,28.10
2023-02-11T07:58:54.985Z,28.20
2023-02-11T08:01:25.860Z,28.10
2023-02-11T08:03:53.201Z,28.20
2023-02-11T08:06:21.736Z,28.30
2023-02-11T08:08:49.389Z,28.40
2023-02-11T08:11:27.812Z,28.50
2023-02-11T08:13:56.336Z,28.60
2023-02-11T08:16:24.458Z,28.60
2023-02-11T08:18:52.315Z,28.60
2023-02-11T08:21:20.029Z,28.60
2023-02-11T08:23:47.144Z,28.60
2023-02-11T08:26:17.662Z,28.60
2023-02-11T08:28:46.603Z,28.70
2023-02-11T08:31:18.883Z,28.60
2023-02-11T08:33:46.245Z,28.60
2023-02-11T08:36:15.341Z,28.60
2023-02-11T08:38:42.658Z,28.60
2023-02-11T08:41:09.872Z,28.60
2023-02-11T08:43:41.584Z,28.60
2023-02-11T08:46:11.532Z,28.50
2023-02-11T08:48:38.320Z,28.50
2023-02-11T08:51:09.567Z,28.60
2023-02-11T08:53:37.014Z,28.60
2023-02-11T08:56:04.199Z,28.60
2023-02-11T08:58:31.023Z,28.60
2023-02-11T09:00:57.990Z,28.70
2023-02-11T09:03:24.847Z,28.70
2023-02-11T09:05:53.315Z,28.70
2023-02-11T09:08:20.908Z,28.70
2023-02-11T09:10:48.497Z,28.70
2023-02-11T09:13:16.849Z,28.70
2023-02-11T09:15:46.942Z,28.70
2023-02-11T09:18:14.064Z,28.70
2023-02-11T09:20:40.927Z,28.60
2023-02-11T09:23:07.694Z,28.60
2023-02-11T09:25:34.450Z,28.60
2023-02-11T09:28:01.318Z,28.60
2023-02-11T09:30:28.257Z,28.60
2023-02-11T09:32:55.143Z,28.60
2023-02-11T09:35:21.887Z,28.70
2023-02-11T09:37:48.652Z,28.80
2023-02-11T09:40:16.401Z,28.80
2023-02-11T09:43:01.765Z,28.90
2023-02-11T09:45:31.685Z,29.00
2023-02-11T09:48:00.614Z,29.00
2023-02-11T09:50:40.486Z,29.00
2023-02-11T09:53:16.689Z,29.00
2023-02-11T09:55:46.873Z,29.00
2023-02-11T09:58:18.044Z,29.00
2023-02-11T10:01:02.986Z,29.00
2023-02-11T10:03:38.679Z,29.00
2023-02-11T10:06:26.974Z,29.00
2023-02-11T10:09:07.174Z,29.10
2023-02-11T10:11:51.785Z,29.00
2023-02-11T10:14:40.170Z,29.10
2023-02-11T10:17:40.742Z,29.10
2023-02-11T10:20:10.486Z,29.10
2023-02-11T10:22:53.951Z,29.20
2023-02-11T10:25:25.203Z,29.10
2023-02-11T10:27:54.566Z,29.10
2023-02-11T10:30:42.525Z,29.10
2023-02-11T10:33:34.240Z,29.10
2023-02-11T10:36:01.116Z,29.10
2023-02-11T10:38:28.068Z,29.10
2023-02-11T10:40:54.917Z,29.00
2023-02-11T10:43:26.645Z,29.00
2023-02-11T10:45:55.940Z,29.00
2023-02-11T10:48:42.682Z,29.00
2023-02-11T10:51:15.986Z,29.00
2023-02-11T10:53:43.174Z,29.00
2023-02-11T10:56:14.362Z,29.00
2023-02-11T10:58:56.089Z,29.00
2023-02-11T11:01:25.000Z,29.00
2023-02-11T11:03:52.945Z,29.00
2023-02-11T11:06:31.864Z,29.00
2023-02-11T11:08:58.795Z,29.00
2023-02-11T11:11:26.570Z,29.00
2023-02-11T11:13:53.273Z,29.00
2023-02-11T11:16:30.962Z,29.00
2023-02-11T11:19:06.749Z,28.90
2023-02-11T11:21:49.933Z,28.80
2023-02-11T11:24:19.587Z,28.90
2023-02-11T11:26:48.686Z,28.90
2023-02-11T11:29:38.445Z,28.90
2023-02-11T11:32:16.582Z,28.90
2023-02-11T11:34:55.505Z,28.90
2023-02-11T11:37:31.957Z,28.90
2023-02-11T11:40:23.910Z,28.90
2023-02-11T11:43:12.292Z,28.90
2023-02-11T11:45:39.729Z,28.90
2023-02-11T11:48:09.854Z,28.90
2023-02-11T11:51:07.119Z,28.90
2023-02-11T11:53:37.135Z,29.40
2023-02-11T11:56:13.013Z,29.00
2023-02-11T11:58:40.455Z,29.00
2023-02-11T12:01:26.023Z,29.00
2023-02-11T12:04:13.381Z,29.10
2023-02-11T12:07:07.743Z,29.10
2023-02-11T12:09:48.245Z,29.10
2023-02-11T12:12:26.753Z,29.10
2023-02-11T12:15:12.135Z,29.10
2023-02-11T12:18:05.654Z,29.00
2023-02-11T12:20:59.705Z,29.10
2023-02-11T12:23:58.940Z,29.00
2023-02-11T12:26:44.980Z,29.00
2023-02-11T12:29:36.442Z,29.00
2023-02-11T12:32:18.129Z,29.00
2023-02-11T12:35:12.204Z,29.00
2023-02-11T12:38:05.113Z,29.00
2023-02-11T12:40:43.590Z,29.00
2023-02-11T12:43:28.783Z,29.00
2023-02-11T12:46:29.606Z,29.00
2023-02-11T12:49:22.309Z,28.90
2023-02-11T12:52:04.602Z,28.90
2023-02-11T12:55:00.360Z,28.90
2023-02-11T12:57:31.824Z,29.00
2023-02-11T13:00:19.036Z,29.00
2023-02-11T13:02:56.113Z,29.00
2023-02-11T13:05:26.100Z,29.00
2023-02-11T13:07:59.254Z,29.00
2023-02-11T13:10:41.615Z,29.00
2023-02-11T13:13:46.159Z,29.00
2023-02-11T13:16:41.767Z,29.00
2023-02-11T13:19:14.564Z,29.00
2023-02-11T13:22:16.353Z,29.10
2023-02-11T13:25:14.476Z,29.10
2023-02-11T13:27:58.838Z,29.10
2023-02-11T13:30:32.889Z,29.20
2023-02-11T13:33:02.476Z,29.30
2023-02-11T13:35:33.646Z,29.30
2023-02-11T13:38:16.963Z,29.30
2023-02-11T13:40:44.479Z,29.40
2023-02-11T13:43:28.727Z,29.30
2023-02-11T13:46:05.168Z,29.30
2023-02-11T13:48:36.165Z,29.30
2023-02-11T13:51:11.439Z,29.30
2023-02-11T13:54:05.429Z,29.30
2023-02-11T13:56:38.794Z,29.30
2023-02-11T13:59:25.818Z,29.30
2023-02-11T14:02:36.174Z,29.30
2023-02-11T14:05:24.464Z,29.30
2023-02-11T14:08:28.114Z,29.30
2023-02-11T14:11:19.139Z,29.30
2023-02-11T14:13:49.058Z,29.30
2023-02-11T14:16:31.675Z,29.30
2023-02-11T14:19:03.580Z,29.30
2023-02-11T14:21:42.351Z,29.30
2023-02-11T14:24:12.925Z,29.30
2023-02-11T14:26:58.534Z,29.30
2023-02-11T14:29:33.936Z,29.30
2023-02-11T14:32:25.278Z,29.30
2023-02-11T14:35:05.325Z,29.30
2023-02-11T14:37:56.278Z,29.30
2023-02-11T14:40:34.076Z,29.20
2023-02-11T14:43:18.457Z,29.30
2023-02-11T14:45:50.669Z,29.20
2023-02-11T14:48:19.270Z,29.30
2023-02-11T14:51:20.302Z,29.30
2023-02-11T14:53:50.340Z,29.90
2023-02-11T14:56:21.052Z,29.30
2023-02-11T14:58:51.921Z,29.40
2023-02-11T15:01:36.635Z,29.50
2023-02-11T15:04:06.099Z,29.40
2023-02-11T15:06:46.044Z,29.40
2023-02-11T15:09:29.327Z,29.50
2023-02-11T15:11:57.156Z,29.50
2023-02-11T15:14:27.412Z,29.50
2023-02-11T15:16:57.642Z,29.40
2023-02-11T15:19:41.137Z,29.40
2023-02-11T15:22:26.786Z,29.50
2023-02-11T15:25:11.499Z,29.50
2023-02-11T15:27:43.663Z,29.50
2023-02-11T15:30:22.754Z,29.50
2023-02-11T15:33:00.777Z,29.40
2023-02-11T15:35:37.226Z,29.50
2023-02-11T15:38:04.594Z,29.50
2023-02-11T15:40:34.052Z,29.40
2023-02-11T15:43:09.445Z,29.40
2023-02-11T15:45:52.977Z,29.40
2023-02-11T15:48:26.904Z,29.40
2023-02-11T15:51:00.222Z,29.40
2023-02-11T15:53:40.601Z,29.30
2023-02-11T15:56:30.802Z,29.30
2023-02-11T15:59:00.350Z,29.40
2023-02-11T16:01:35.834Z,29.30
2023-02-11T16:04:04.895Z,29.40
2023-02-11T16:06:38.919Z,29.40
2023-02-11T16:09:08.417Z,29.50
2023-02-11T16:11:53.695Z,29.50
2023-02-11T16:14:29.495Z,29.50
2023-02-11T16:17:06.333Z,29.40
2023-02-11T16:19:35.027Z,29.50
2023-02-11T16:22:08.370Z,29.40
2023-02-11T16:24:37.214Z,29.40
2023-02-11T16:27:07.645Z,29.40
2023-02-11T16:29:37.202Z,29.40
2023-02-11T16:32:20.908Z,29.30
2023-02-11T16:34:47.978Z,29.40
2023-02-11T16:37:15.156Z,29.40
2023-02-11T16:39:42.060Z,29.40
2023-02-11T16:42:09.895Z,29.40
2023-02-11T16:44:36.699Z,29.40
2023-02-11T16:47:06.355Z,29.30
2023-02-11T16:49:37.369Z,29.30
2023-02-11T16:52:08.535Z,29.20
2023-02-11T16:54:35.310Z,29.20
2023-02-11T16:57:06.031Z,29.30
2023-02-11T16:59:32.803Z,29.30
2023-02-11T17:01:59.610Z,29.30
2023-02-11T17:04:30.018Z,29.30
2023-02-11T17:06:58.491Z,29.40
2023-02-11T17:09:30.618Z,29.40
2023-02-11T17:11:58.013Z,29.40
2023-02-11T17:14:24.816Z,29.60
2023-02-11T17:16:51.657Z,29.60
2023-02-11T17:19:23.683Z,29.70
2023-02-11T17:21:52.383Z,29.80
2023-02-11T17:24:20.210Z,29.80
2023-02-11T17:26:47.881Z,29.80
2023-02-11T17:29:17.724Z,29.80
2023-02-11T17:31:44.970Z,29.90
2023-02-11T17:34:12.313Z,29.80
2023-02-11T17:36:41.401Z,29.90
2023-02-11T17:39:08.841Z,29.90
2023-02-11T17:41:37.459Z,29.80
2023-02-11T17:44:05.106Z,29.70
2023-02-11T17:46:32.326Z,29.70
2023-02-11T17:48:59.610Z,29.70
2023-02-11T17:51:27.901Z,29.70
2023-02-11T17:53:56.750Z,29.70
2023-02-11T17:56:23.732Z,29.80
2023-02-11T17:58:50.599Z,29.80
2023-02-11T18:01:17.458Z,29.80
2023-02-11T18:03:44.306Z,29.80
2023-02-11T18:06:11.611Z,29.80
2023-02-11T18:08:38.495Z,29.80
2023-02-11T18:11:11.613Z,29.80
2023-02-11T18:13:38.397Z,29.70
2023-02-11T18:16:06.007Z,29.80
2023-02-11T18:18:32.861Z,29.70
2023-02-11T18:21:02.950Z,29.70
2023-02-11T18:23:30.267Z,29.70
2023-02-11T18:25:57.023Z,29.70
2023-02-11T18:28:23.838Z,29.70
2023-02-11T18:30:58.247Z,29.80
2023-02-11T18:33:25.916Z,29.80
2023-02-11T18:35:53.036Z,29.80
2023-02-11T18:38:19.943Z,29.80
2023-02-11T18:40:47.502Z,29.70
2023-02-11T18:43:14.605Z,29.70
2023-02-11T18:45:45.441Z,29.60
2023-02-11T18:48:14.378Z,29.60
2023-02-11T18:50:45.660Z,29.70
2023-02-11T18:53:13.826Z,29.60
2023-02-11T18:55:42.986Z,29.70
2023-02-11T18:58:09.827Z,29.70
2023-02-11T19:00:40.278Z,29.70
2023-02-11T19:03:07.376Z,29.80
2023-02-11T19:05:42.078Z,29.80
2023-02-11T19:08:09.289Z,29.80
2023-02-11T19:10:40.618Z,29.80
2023-02-11T19:13:07.591Z,29.80
2023-02-11T19:15:40.172Z,29.80
2023-02-11T19:18:06.944Z,29.80
2023-02-11T19:20:34.052Z,29.80
2023-02-11T19:23:01.004Z,29.70
2023-02-11T19:25:27.954Z,29.70
2023-02-11T19:27:54.760Z,29.70
2023-02-11T19:30:21.829Z,29.60
2023-02-11T19:32:52.429Z,29.70
2023-02-11T19:35:22.344Z,29.70
2023-02-11T19:37:49.118Z,29.70
2023-02-11T19:40:16.628Z,29.70
2023-02-11T19:42:43.469Z,29.80
2023-02-11T19:45:10.585Z,29.70
2023-02-11T19:47:37.358Z,29.80
2023-02-11T19:50:05.936Z,29.80
2023-02-11T19:52:32.747Z,29.90
2023-02-11T19:55:00.193Z,29.90
2023-02-11T19:57:26.942Z,30.00
2023-02-11T19:59:54.940Z,30.00
2023-02-11T20:02:22.167Z,30.00
2023-02-11T20:04:50.204Z,30.10
2023-02-11T20:07:16.978Z,30.20
2023-02-11T20:09:43.803Z,30.10
2023-02-11T20:12:11.960Z,30.20
2023-02-11T20:14:38.832Z,30.20
2023-02-11T20:17:05.659Z,30.30
2023-02-11T20:19:32.549Z,30.30
2023-02-11T20:21:59.940Z,30.30
2023-02-11T20:24:26.871Z,30.40
2023-02-11T20:26:55.783Z,30.40
2023-02-11T20:29:23.434Z,30.50
2023-02-11T20:31:50.895Z,30.50
2023-02-11T20:34:18.151Z,30.50
2023-02-11T20:36:51.709Z,30.50
2023-02-11T20:39:21.702Z,30.50
2023-02-11T20:41:49.002Z,30.50
2023-02-11T20:44:16.827Z,30.60
2023-02-11T20:46:47.921Z,30.60
2023-02-11T20:49:18.742Z,30.50
2023-02-11T20:51:45.901Z,30.50
2023-02-11T20:54:14.423Z,30.50
2023-02-11T20:56:41.562Z,30.60
2023-02-11T20:59:08.498Z,30.60
2023-02-11T21:01:40.613Z,30.60
2023-02-11T21:04:13.057Z,30.60
2023-02-11T21:06:43.473Z,30.60
2023-02-11T21:09:13.524Z,30.60
2023-02-11T21:11:41.516Z,30.50
2023-02-11T21:14:09.954Z,30.50
2023-02-11T21:16:38.545Z,30.60
2023-02-11T21:19:06.452Z,30.60
2023-02-11T21:21:35.224Z,30.70
2023-02-11T21:24:02.648Z,30.70
2023-02-11T21:26:29.557Z,30.70
2023-02-11T21:28:56.565Z,30.80
2023-02-11T21:31:27.293Z,30.80
2023-02-11T21:33:55.955Z,30.90
2023-02-11T21:36:23.896Z,30.90
2023-02-11T21:38:51.006Z,30.90
2023-02-11T21:41:19.781Z,31.00
2023-02-11T21:43:46.524Z,31.00
2023-02-11T21:46:15.496Z,31.00
2023-02-11T21:48:42.795Z,31.10
2023-02-11T21:51:16.408Z,31.00
2023-02-11T21:53:43.371Z,31.00
2023-02-11T21:56:13.575Z,31.00
2023-02-11T21:58:40.965Z,31.00
2023-02-11T22:01:17.788Z,30.90
2023-02-11T22:03:46.066Z,30.90
2023-02-11T22:06:16.364Z,31.00
2023-02-11T22:08:43.412Z,30.90
2023-02-11T22:11:12.383Z,30.90
2023-02-11T22:13:40.665Z,30.90
2023-02-11T22:16:11.145Z,30.90
2023-02-11T22:18:39.321Z,30.90
2023-02-11T22:21:08.835Z,30.90
2023-02-11T22:23:37.141Z,30.90
2023-02-11T22:26:07.138Z,30.90
2023-02-11T22:28:35.329Z,30.80
2023-02-11T22:31:02.385Z,30.80
2023-02-11T22:33:29.634Z,30.90
2023-02-11T22:36:08.526Z,30.90
2023-02-11T22:38:35.888Z,31.50
2023-02-11T22:41:06.792Z,30.80
2023-02-11T22:43:33.937Z,30.80
2023-02-11T22:46:02.785Z,30.90
2023-02-11T22:48:29.686Z,30.90
2023-02-11T22:50:56.611Z,30.90
2023-02-11T22:53:25.456Z,31.00
2023-02-11T22:55:52.671Z,31.00
2023-02-11T22:58:22.860Z,31.10
2023-02-11T23:00:49.764Z,31.50
2023-02-11T23:03:17.155Z,31.30
2023-02-11T23:05:44.190Z,31.40
2023-02-11T23:08:11.687Z,31.50
2023-02-11T23:10:39.937Z,31.60
2023-02-11T23:13:07.887Z,31.70
2023-02-11T23:15:39.442Z,31.70
2023-02-11T23:18:06.693Z,31.70
2023-02-11T23:20:37.668Z,31.70
2023-02-11T23:23:06.080Z,31.70
2023-02-11T23:25:33.722Z,31.80
2023-02-11T23:28:02.031Z,31.80
2023-02-11T23:30:29.097Z,31.80
2023-02-11T23:32:55.863Z,31.80
2023-02-11T23:35:23.145Z,31.70
2023-02-11T23:37:51.594Z,31.80
2023-02-11T23:40:20.154Z,31.80
2023-02-11T23:42:47.717Z,31.80
2023-02-11T23:45:15.127Z,31.90
2023-02-11T23:47:41.966Z,31.90
2023-02-11T23:50:09.903Z,31.90
2023-02-11T23:52:37.035Z,32.00
2023-02-11T23:55:04.199Z,32.00
2023-02-11T23:57:34.394Z,32.00
